Blundale, Georgia
Current Conditions -  °F | °C
As of 8:35 AM on Monday 24 Nov 2014 (Local Time) from KVDI Reporting Station
Haze Haze  
Wind Chill: 70°   Ceiling: 500
Heat Index: 70°   Visibility: 5mi
Dew Point: 70°   Wind: 9mph
Humidity: 100%   Direction: 210°SSW
Pressure: 29.85"   Gusts: NA
Location:  32.5371°N, 82.3457°W
Report Text: KVDI 241335Z AUTO 21008KT 5SM BR OVC005 21/21 A2985 RMK AO2 LTG DSNT E
Loading
Personal Weather Stations






























Interactive Weather Map New forecast layout! Learn more

10-Day Weather Forecast

Advertisements
Track Severe Weather on mobile